createdAt,value
2022-12-23T00:00:01.468Z,0.023
2022-12-23T00:05:01.444Z,0.101
2022-12-23T00:10:01.423Z,0.126
2022-12-23T00:15:01.428Z,0.15
2022-12-23T00:20:01.650Z,0.153
2022-12-23T00:25:01.659Z,0.138
2022-12-23T00:30:01.654Z,0.109
2022-12-23T00:35:01.526Z,0.117
2022-12-23T00:40:06.395Z,0.116
2022-12-23T00:45:01.558Z,0.114
2022-12-23T00:50:01.535Z,0.11800000000000001
2022-12-23T00:55:01.504Z,0.116
2022-12-23T01:00:01.521Z,0.157
2022-12-23T01:05:01.504Z,0.162
2022-12-23T01:10:01.628Z,0.162
2022-12-23T01:15:01.477Z,0.115
2022-12-23T01:20:01.517Z,0.10400000000000001
2022-12-23T01:25:01.519Z,0.107
2022-12-23T01:30:01.586Z,0.10400000000000001
2022-12-23T01:35:01.538Z,0.091
2022-12-23T01:40:01.564Z,0
2022-12-23T01:45:01.519Z,0
2022-12-23T01:50:01.569Z,0
2022-12-23T01:55:01.695Z,0.01
2022-12-23T02:00:01.715Z,0.153
2022-12-23T02:05:01.669Z,0.11900000000000001
2022-12-23T02:10:01.743Z,0.116
2022-12-23T02:15:02.198Z,0.11900000000000001
2022-12-23T02:20:01.647Z,0.113
2022-12-23T02:25:01.571Z,0.10400000000000001
2022-12-23T02:30:01.523Z,0.10200000000000001
2022-12-23T02:35:01.579Z,0.146
2022-12-23T02:40:01.633Z,0.151
2022-12-23T02:45:01.557Z,0.152
2022-12-23T02:50:01.708Z,0.11
2022-12-23T02:55:01.584Z,0.10300000000000001
2022-12-23T03:00:01.628Z,0.111
2022-12-23T03:05:01.581Z,0.11900000000000001
2022-12-23T03:10:01.535Z,0.116
2022-12-23T03:15:01.535Z,0.11900000000000001
2022-12-23T03:20:01.730Z,0.14300000000000002
2022-12-23T03:25:01.603Z,0.165
2022-12-23T03:30:01.580Z,0.166
2022-12-23T03:35:01.618Z,0.14
2022-12-23T03:40:01.724Z,0
2022-12-23T03:45:36.748Z,0
2022-12-23T03:50:01.789Z,0
2022-12-23T03:55:01.736Z,0
2022-12-23T04:00:01.728Z,0
2022-12-23T04:05:01.654Z,0.07200000000000001
2022-12-23T04:10:01.648Z,0.161
2022-12-23T04:15:02.027Z,0.164
2022-12-23T04:20:01.671Z,0.162
2022-12-23T04:25:01.675Z,0.117
2022-12-23T04:30:01.730Z,0.117
2022-12-23T04:35:01.654Z,0.113
2022-12-23T04:40:01.703Z,0.12
2022-12-23T04:45:01.690Z,0.112
2022-12-23T04:50:01.684Z,0.121
2022-12-23T04:55:01.745Z,0.14400000000000002
2022-12-23T05:00:01.705Z,0.165
2022-12-23T05:05:01.691Z,0.152
2022-12-23T05:10:01.863Z,0.127
2022-12-23T05:15:01.828Z,0.10400000000000001
2022-12-23T05:20:01.982Z,0.098
2022-12-23T05:25:01.852Z,0.099
2022-12-23T05:30:01.811Z,0.10300000000000001
2022-12-23T05:35:01.709Z,0.116
2022-12-23T05:40:01.726Z,0.121
2022-12-23T05:45:01.787Z,0.168
2022-12-23T05:50:01.932Z,0.08600000000000001
2022-12-23T05:55:01.808Z,0
2022-12-23T06:00:01.730Z,0.013000000000000001
2022-12-23T06:05:01.758Z,0.1
2022-12-23T06:10:01.724Z,0.088
2022-12-23T06:15:01.759Z,0.099
2022-12-23T06:20:01.838Z,0.1
2022-12-23T06:25:01.957Z,0.098
2022-12-23T06:30:01.756Z,0.134
2022-12-23T06:35:01.950Z,0.14400000000000002
2022-12-23T06:40:01.899Z,0.147
2022-12-23T06:45:01.953Z,0.111
2022-12-23T06:50:01.859Z,0.092
2022-12-23T06:55:01.770Z,0.089
2022-12-23T07:00:01.869Z,0.089
2022-12-23T07:05:01.802Z,0.075
2022-12-23T07:10:01.817Z,0.092
2022-12-23T07:15:01.760Z,0.108
2022-12-23T07:20:01.885Z,0.10300000000000001
2022-12-23T07:25:02.005Z,0
2022-12-23T07:30:01.829Z,0
2022-12-23T07:35:01.800Z,0
2022-12-23T07:40:06.726Z,0
2022-12-23T07:45:01.763Z,0.052000000000000005
2022-12-23T07:50:01.986Z,0.092
2022-12-23T07:55:01.987Z,0.094
2022-12-23T08:00:01.970Z,0.093
2022-12-23T08:05:01.957Z,0.131
2022-12-23T08:10:01.898Z,0.14400000000000002
2022-12-23T08:15:01.828Z,0.134
2022-12-23T08:20:01.938Z,9.113
2022-12-23T08:25:01.978Z,30.57
2022-12-23T08:30:01.864Z,28.099
2022-12-23T08:35:01.832Z,37.428
2022-12-23T08:40:01.858Z,48.926
2022-12-23T08:45:01.854Z,61.091
2022-12-23T08:50:02.029Z,95.10300000000001
2022-12-23T08:55:01.863Z,65.996
2022-12-23T09:00:01.928Z,98.155
2022-12-23T09:05:02.133Z,120.305
2022-12-23T09:10:02.054Z,116.601
2022-12-23T09:15:02.034Z,116.961
2022-12-23T09:20:02.004Z,110.958
2022-12-23T09:25:05.135Z,268.36
2022-12-23T09:30:01.948Z,346.583
2022-12-23T09:35:01.917Z,326.511
2022-12-23T09:40:01.920Z,246.56
2022-12-23T09:45:01.905Z,217.751
2022-12-23T09:50:01.917Z,231.488
2022-12-23T09:55:01.905Z,204.541
2022-12-23T10:00:01.983Z,221.873
2022-12-23T10:05:01.937Z,310.914
2022-12-23T10:10:01.991Z,282.926
2022-12-23T10:15:01.937Z,251.852
2022-12-23T10:20:01.968Z,253.80700000000002
2022-12-23T10:25:02.067Z,243.115
2022-12-23T10:30:14.158Z,243.096
2022-12-23T10:35:02.141Z,192.666
2022-12-23T10:40:02.177Z,171.952
2022-12-23T10:45:02.095Z,220.656
2022-12-23T10:50:02.093Z,411.156
2022-12-23T10:55:02.046Z,611.085
2022-12-23T11:00:02.024Z,504.31100000000004
2022-12-23T11:05:02.021Z,612.6850000000001
2022-12-23T11:10:02.031Z,822.134
2022-12-23T11:15:01.967Z,1003.006
2022-12-23T11:20:02.102Z,1105.3500000000001
2022-12-23T11:25:02.072Z,1197.681
2022-12-23T11:30:02.040Z,1184.134
2022-12-23T11:35:02.123Z,923.475
2022-12-23T11:40:02.069Z,702.022
2022-12-23T11:45:02.072Z,749.4780000000001
2022-12-23T11:50:02.093Z,559.779
2022-12-23T11:55:02.248Z,580.593
2022-12-23T12:00:02.237Z,508.56600000000003
2022-12-23T12:05:02.224Z,394.195
2022-12-23T12:10:02.267Z,333.913
2022-12-23T12:15:02.180Z,363.627
2022-12-23T12:20:02.154Z,447.605
2022-12-23T12:25:02.189Z,344.663
2022-12-23T12:30:06.274Z,446.31100000000004
2022-12-23T12:35:02.046Z,365.437
2022-12-23T12:40:02.164Z,241.308
2022-12-23T12:45:02.066Z,313.582
2022-12-23T12:50:02.097Z,1322.5910000000001
2022-12-23T12:55:02.085Z,781.355
2022-12-23T13:00:06.312Z,587.6560000000001
2022-12-23T13:05:02.048Z,380.824
2022-12-23T13:10:02.322Z,454.493
2022-12-23T13:15:02.131Z,611.838
2022-12-23T13:20:02.213Z,926.062
2022-12-23T13:25:02.098Z,718.962
2022-12-23T13:30:02.179Z,328.604
2022-12-23T13:35:02.537Z,441.805
2022-12-23T13:40:02.273Z,208.616
2022-12-23T13:45:02.320Z,128.218
2022-12-23T13:50:02.234Z,125.171
2022-12-23T13:55:02.186Z,178.667
2022-12-23T14:00:05.739Z,139.637
2022-12-23T14:05:02.458Z,100.244
2022-12-23T14:10:02.127Z,71.249
2022-12-23T14:15:02.212Z,74.517
2022-12-23T14:20:02.245Z,46.377
2022-12-23T14:25:02.209Z,13.861
2022-12-23T14:30:05.847Z,29.446
2022-12-23T14:35:02.147Z,16.97
2022-12-23T14:40:02.164Z,0.432
2022-12-23T14:45:02.260Z,0.084
2022-12-23T14:50:02.229Z,0.253
2022-12-23T14:55:28.830Z,0.324
2022-12-23T15:00:02.474Z,0.048
2022-12-23T15:05:02.346Z,0.006
2022-12-23T15:10:02.331Z,0.001
2022-12-23T15:15:02.188Z,0.002
2022-12-23T15:20:02.271Z,0.014
2022-12-23T15:25:02.255Z,0.018000000000000002
2022-12-23T15:30:02.239Z,0.084
2022-12-23T15:35:02.300Z,0.098
2022-12-23T15:40:12.447Z,0.097
2022-12-23T15:45:02.304Z,0.097
2022-12-23T15:50:02.223Z,0.092
2022-12-23T15:55:02.240Z,0.14
2022-12-23T16:00:02.251Z,0.139
2022-12-23T16:05:02.216Z,0.138
2022-12-23T16:10:02.415Z,0.091
2022-12-23T16:15:02.410Z,0.063
2022-12-23T16:20:02.340Z,0.049
2022-12-23T16:25:02.376Z,0.009000000000000001
2022-12-23T16:30:02.269Z,0.031
2022-12-23T16:35:02.275Z,0.009000000000000001
2022-12-23T16:40:02.250Z,0.001
2022-12-23T16:45:02.401Z,0
2022-12-23T16:50:02.357Z,0.004
2022-12-23T16:55:02.372Z,0.012
2022-12-23T17:00:02.354Z,0.048
2022-12-23T17:05:02.358Z,0.112
2022-12-23T17:10:02.339Z,0.10300000000000001
2022-12-23T17:15:02.349Z,0.157
2022-12-23T17:20:02.372Z,0.512
2022-12-23T17:25:02.476Z,0.47800000000000004
2022-12-23T17:30:02.424Z,0.5
2022-12-23T17:35:02.523Z,0.485
2022-12-23T17:40:02.511Z,0.389
2022-12-23T17:45:02.560Z,0.13
2022-12-23T17:50:02.407Z,0.081
2022-12-23T17:55:02.343Z,0.088
2022-12-23T18:00:02.427Z,0.077
2022-12-23T18:05:02.309Z,0.07200000000000001
2022-12-23T18:10:02.365Z,0.1
2022-12-23T18:15:02.548Z,0.054
2022-12-23T18:20:02.463Z,0.091
2022-12-23T18:25:02.334Z,0.098
2022-12-23T18:30:02.366Z,0.069
2022-12-23T18:35:02.393Z,0.048
2022-12-23T18:40:02.350Z,0.036000000000000004
2022-12-23T18:45:02.334Z,0.032
2022-12-23T18:50:02.544Z,0.042
2022-12-23T18:55:02.555Z,0.033
2022-12-23T19:00:02.534Z,0.018000000000000002
2022-12-23T19:05:02.611Z,0
2022-12-23T19:10:02.390Z,0
2022-12-23T19:15:02.405Z,0
2022-12-23T19:20:02.486Z,0
2022-12-23T19:25:06.483Z,0
2022-12-23T19:30:02.460Z,0.022
2022-12-23T19:35:02.470Z,0.037
2022-12-23T19:40:02.439Z,0.032
2022-12-23T19:45:02.455Z,0.028
2022-12-23T19:50:02.439Z,0.074
2022-12-23T19:55:02.542Z,0.082
2022-12-23T20:00:02.475Z,0.083
2022-12-23T20:05:02.706Z,0.106
2022-12-23T20:10:02.726Z,0.007
2022-12-23T20:15:02.704Z,0.003
2022-12-23T20:20:02.665Z,0.002
2022-12-23T20:25:02.524Z,0
2022-12-23T20:30:02.478Z,0.001
2022-12-23T20:35:02.478Z,0
2022-12-23T20:40:02.553Z,0
2022-12-23T20:45:02.485Z,0.047
2022-12-23T20:50:02.518Z,0.10200000000000001
2022-12-23T20:55:02.529Z,0.064
2022-12-23T21:00:02.519Z,0.061
2022-12-23T21:05:02.639Z,0.067
2022-12-23T21:10:05.523Z,0.081
2022-12-23T21:15:02.628Z,0.038
2022-12-23T21:20:07.411Z,0.084
2022-12-23T21:25:02.513Z,0.058
2022-12-23T21:30:02.555Z,0
2022-12-23T21:35:02.590Z,0
2022-12-23T21:40:02.517Z,0
2022-12-23T21:45:02.765Z,0.004
2022-12-23T21:50:02.745Z,0.016
2022-12-23T21:55:02.753Z,0.013000000000000001
2022-12-23T22:00:02.632Z,0.001
2022-12-23T22:05:02.569Z,0.051000000000000004
2022-12-23T22:10:02.577Z,0.11
2022-12-23T22:15:06.312Z,0.158
2022-12-23T22:20:02.573Z,0.159
2022-12-23T22:25:02.622Z,0.154
2022-12-23T22:30:02.663Z,0.11
2022-12-23T22:35:02.566Z,0.081
2022-12-23T22:40:02.568Z,0
2022-12-23T22:45:02.586Z,0
2022-12-23T22:50:02.653Z,0.001
2022-12-23T22:55:02.587Z,0.001
2022-12-23T23:00:07.972Z,0
2022-12-23T23:05:04.452Z,0
2022-12-23T23:10:02.618Z,0
2022-12-23T23:15:02.625Z,0.001
2022-12-23T23:20:02.580Z,0
2022-12-23T23:25:02.780Z,0.105
2022-12-23T23:30:02.748Z,0.113
2022-12-23T23:35:06.934Z,0.11
2022-12-23T23:40:02.728Z,0.097
2022-12-23T23:45:02.982Z,0.105
2022-12-23T23:50:02.729Z,0
2022-12-23T23:55:02.686Z,0
